sensor_id;sensor_type;location;lat;lon;timestamp;P1;durP1;ratioP1;P2;durP2;ratioP2
28629;SDS011;15817;42.130;24.762;2023-02-01T00:00:41;4.63;;;2.72;;
28629;SDS011;15817;42.130;24.762;2023-02-01T00:03:07;4.13;;;2.35;;
28629;SDS011;15817;42.130;24.762;2023-02-01T00:05:36;5.35;;;2.50;;
28629;SDS011;15817;42.130;24.762;2023-02-01T00:08:02;4.75;;;1.95;;
28629;SDS011;15817;42.130;24.762;2023-02-01T00:10:31;7.05;;;2.35;;
28629;SDS011;15817;42.130;24.762;2023-02-01T00:12:57;4.88;;;2.30;;
28629;SDS011;15817;42.130;24.762;2023-02-01T00:15:23;4.38;;;2.78;;
28629;SDS011;15817;42.130;24.762;2023-02-01T00:17:53;4.00;;;2.58;;
28629;SDS011;15817;42.130;24.762;2023-02-01T00:20:20;4.95;;;2.40;;
28629;SDS011;15817;42.130;24.762;2023-02-01T00:22:48;4.03;;;2.40;;
28629;SDS011;15817;42.130;24.762;2023-02-01T00:25:26;4.50;;;2.30;;
28629;SDS011;15817;42.130;24.762;2023-02-01T00:27:55;2.90;;;2.30;;
28629;SDS011;15817;42.130;24.762;2023-02-01T00:30:44;2.70;;;2.50;;
28629;SDS011;15817;42.130;24.762;2023-02-01T00:33:10;5.75;;;2.30;;
28629;SDS011;15817;42.130;24.762;2023-02-01T00:35:46;5.43;;;2.40;;
28629;SDS011;15817;42.130;24.762;2023-02-01T00:38:12;4.68;;;1.92;;
28629;SDS011;15817;42.130;24.762;2023-02-01T00:40:53;4.55;;;2.60;;
28629;SDS011;15817;42.130;24.762;2023-02-01T00:43:19;3.55;;;2.20;;
28629;SDS011;15817;42.130;24.762;2023-02-01T00:46:05;3.38;;;2.30;;
28629;SDS011;15817;42.130;24.762;2023-02-01T00:48:55;3.88;;;2.35;;
28629;SDS011;15817;42.130;24.762;2023-02-01T00:51:38;2.72;;;2.17;;
28629;SDS011;15817;42.130;24.762;2023-02-01T00:54:35;2.75;;;2.15;;
28629;SDS011;15817;42.130;24.762;2023-02-01T00:57:02;3.30;;;2.25;;
28629;SDS011;15817;42.130;24.762;2023-02-01T00:59:28;3.42;;;1.88;;
28629;SDS011;15817;42.130;24.762;2023-02-01T01:01:54;4.35;;;2.33;;
28629;SDS011;15817;42.130;24.762;2023-02-01T01:04:23;3.03;;;2.15;;
28629;SDS011;15817;42.130;24.762;2023-02-01T01:07:08;3.95;;;2.10;;
28629;SDS011;15817;42.130;24.762;2023-02-01T01:09:47;8.32;;;2.58;;
28629;SDS011;15817;42.130;24.762;2023-02-01T01:12:15;3.50;;;2.03;;
28629;SDS011;15817;42.130;24.762;2023-02-01T01:14:50;3.58;;;2.42;;
28629;SDS011;15817;42.130;24.762;2023-02-01T01:17:31;3.22;;;2.13;;
28629;SDS011;15817;42.130;24.762;2023-02-01T01:20:06;4.15;;;2.38;;
28629;SDS011;15817;42.130;24.762;2023-02-01T01:22:46;5.78;;;2.17;;
28629;SDS011;15817;42.130;24.762;2023-02-01T01:25:15;2.83;;;2.13;;
28629;SDS011;15817;42.130;24.762;2023-02-01T01:27:44;6.18;;;2.28;;
28629;SDS011;15817;42.130;24.762;2023-02-01T01:30:13;4.43;;;2.10;;
28629;SDS011;15817;42.130;24.762;2023-02-01T01:32:54;2.55;;;2.08;;
28629;SDS011;15817;42.130;24.762;2023-02-01T01:35:22;8.70;;;2.42;;
28629;SDS011;15817;42.130;24.762;2023-02-01T01:41:15;5.45;;;2.22;;
28629;SDS011;15817;42.130;24.762;2023-02-01T01:43:54;5.57;;;2.17;;
28629;SDS011;15817;42.130;24.762;2023-02-01T01:46:23;3.50;;;2.00;;
28629;SDS011;15817;42.130;24.762;2023-02-01T01:49:22;6.65;;;2.00;;
28629;SDS011;15817;42.130;24.762;2023-02-01T01:51:55;4.35;;;2.38;;
28629;SDS011;15817;42.130;24.762;2023-02-01T01:54:43;3.50;;;2.42;;
28629;SDS011;15817;42.130;24.762;2023-02-01T01:57:19;3.97;;;2.20;;
28629;SDS011;15817;42.130;24.762;2023-02-01T01:59:56;3.95;;;2.65;;
28629;SDS011;15817;42.130;24.762;2023-02-01T02:02:46;5.25;;;2.33;;
28629;SDS011;15817;42.130;24.762;2023-02-01T02:05:15;5.40;;;2.50;;
28629;SDS011;15817;42.130;24.762;2023-02-01T02:10:50;3.40;;;2.53;;
28629;SDS011;15817;42.130;24.762;2023-02-01T02:13:41;4.30;;;2.33;;
28629;SDS011;15817;42.130;24.762;2023-02-01T02:39:23;2.92;;;1.80;;
28629;SDS011;15817;42.130;24.762;2023-02-01T02:42:05;3.35;;;1.73;;
28629;SDS011;15817;42.130;24.762;2023-02-01T02:48:34;5.47;;;2.20;;
28629;SDS011;15817;42.130;24.762;2023-02-01T02:51:28;2.35;;;2.03;;
28629;SDS011;15817;42.130;24.762;2023-02-01T02:54:28;5.40;;;2.10;;
28629;SDS011;15817;42.130;24.762;2023-02-01T02:57:41;4.18;;;1.75;;
28629;SDS011;15817;42.130;24.762;2023-02-01T03:00:28;2.30;;;1.98;;
28629;SDS011;15817;42.130;24.762;2023-02-01T03:03:18;3.15;;;1.83;;
28629;SDS011;15817;42.130;24.762;2023-02-01T03:06:10;3.17;;;2.22;;
28629;SDS011;15817;42.130;24.762;2023-02-01T03:08:41;4.30;;;2.08;;
28629;SDS011;15817;42.130;24.762;2023-02-01T03:11:12;3.28;;;2.13;;
28629;SDS011;15817;42.130;24.762;2023-02-01T03:13:56;2.40;;;2.00;;
28629;SDS011;15817;42.130;24.762;2023-02-01T03:19:13;3.13;;;2.25;;
28629;SDS011;15817;42.130;24.762;2023-02-01T03:21:53;4.65;;;2.38;;
28629;SDS011;15817;42.130;24.762;2023-02-01T03:30:38;3.28;;;2.50;;
28629;SDS011;15817;42.130;24.762;2023-02-01T03:33:13;4.72;;;2.60;;
28629;SDS011;15817;42.130;24.762;2023-02-01T03:43:59;6.85;;;2.92;;
28629;SDS011;15817;42.130;24.762;2023-02-01T03:46:54;3.65;;;2.83;;
28629;SDS011;15817;42.130;24.762;2023-02-01T03:49:35;4.35;;;2.70;;
28629;SDS011;15817;42.130;24.762;2023-02-01T03:52:04;7.28;;;3.42;;
28629;SDS011;15817;42.130;24.762;2023-02-01T03:54:40;6.13;;;2.88;;
28629;SDS011;15817;42.130;24.762;2023-02-01T03:57:22;4.10;;;2.70;;
28629;SDS011;15817;42.130;24.762;2023-02-01T04:00:20;4.53;;;3.08;;
28629;SDS011;15817;42.130;24.762;2023-02-01T04:02:56;5.65;;;3.10;;
28629;SDS011;15817;42.130;24.762;2023-02-01T04:06:02;4.18;;;3.47;;
28629;SDS011;15817;42.130;24.762;2023-02-01T04:08:49;6.53;;;3.92;;
28629;SDS011;15817;42.130;24.762;2023-02-01T04:11:37;7.22;;;3.35;;
28629;SDS011;15817;42.130;24.762;2023-02-01T04:14:03;5.30;;;3.83;;
28629;SDS011;15817;42.130;24.762;2023-02-01T04:16:34;5.72;;;3.80;;
28629;SDS011;15817;42.130;24.762;2023-02-01T04:19:01;6.07;;;3.22;;
28629;SDS011;15817;42.130;24.762;2023-02-01T04:21:32;6.30;;;4.43;;
28629;SDS011;15817;42.130;24.762;2023-02-01T04:24:04;6.10;;;4.07;;
28629;SDS011;15817;42.130;24.762;2023-02-01T04:26:30;6.10;;;4.55;;
28629;SDS011;15817;42.130;24.762;2023-02-01T04:28:56;5.05;;;3.58;;
28629;SDS011;15817;42.130;24.762;2023-02-01T04:31:21;7.68;;;3.70;;
28629;SDS011;15817;42.130;24.762;2023-02-01T04:33:56;7.68;;;4.13;;
28629;SDS011;15817;42.130;24.762;2023-02-01T04:36:24;5.57;;;3.83;;
28629;SDS011;15817;42.130;24.762;2023-02-01T04:38:50;6.65;;;3.67;;
28629;SDS011;15817;42.130;24.762;2023-02-01T04:41:22;6.65;;;3.90;;
28629;SDS011;15817;42.130;24.762;2023-02-01T04:43:48;6.10;;;3.78;;
28629;SDS011;15817;42.130;24.762;2023-02-01T04:46:20;11.25;;;4.43;;
28629;SDS011;15817;42.130;24.762;2023-02-01T04:48:46;8.65;;;4.15;;
28629;SDS011;15817;42.130;24.762;2023-02-01T04:51:15;8.48;;;4.13;;
28629;SDS011;15817;42.130;24.762;2023-02-01T04:59:44;5.38;;;3.40;;
28629;SDS011;15817;42.130;24.762;2023-02-01T05:02:09;3.92;;;2.83;;
28629;SDS011;15817;42.130;24.762;2023-02-01T05:04:36;4.35;;;3.15;;
28629;SDS011;15817;42.130;24.762;2023-02-01T05:07:05;4.05;;;3.00;;
28629;SDS011;15817;42.130;24.762;2023-02-01T05:09:30;6.07;;;3.10;;
28629;SDS011;15817;42.130;24.762;2023-02-01T05:12:02;6.35;;;3.25;;
28629;SDS011;15817;42.130;24.762;2023-02-01T05:14:49;5.00;;;2.88;;
28629;SDS011;15817;42.130;24.762;2023-02-01T05:17:15;3.28;;;2.97;;
28629;SDS011;15817;42.130;24.762;2023-02-01T05:19:44;7.90;;;3.10;;
28629;SDS011;15817;42.130;24.762;2023-02-01T05:22:10;4.00;;;2.90;;
28629;SDS011;15817;42.130;24.762;2023-02-01T05:24:39;7.85;;;3.40;;
28629;SDS011;15817;42.130;24.762;2023-02-01T05:27:07;7.88;;;2.85;;
28629;SDS011;15817;42.130;24.762;2023-02-01T05:29:39;8.50;;;3.20;;
28629;SDS011;15817;42.130;24.762;2023-02-01T05:32:58;9.65;;;3.42;;
28629;SDS011;15817;42.130;24.762;2023-02-01T05:35:38;5.63;;;2.95;;
28629;SDS011;15817;42.130;24.762;2023-02-01T05:38:04;4.68;;;2.95;;
28629;SDS011;15817;42.130;24.762;2023-02-01T05:40:29;7.63;;;3.00;;
28629;SDS011;15817;42.130;24.762;2023-02-01T05:42:55;5.97;;;3.00;;
28629;SDS011;15817;42.130;24.762;2023-02-01T05:45:21;6.30;;;3.00;;
28629;SDS011;15817;42.130;24.762;2023-02-01T05:47:47;8.05;;;3.20;;
28629;SDS011;15817;42.130;24.762;2023-02-01T05:50:15;6.68;;;3.00;;
28629;SDS011;15817;42.130;24.762;2023-02-01T05:52:42;6.78;;;3.30;;
28629;SDS011;15817;42.130;24.762;2023-02-01T05:55:07;10.45;;;3.20;;
28629;SDS011;15817;42.130;24.762;2023-02-01T05:57:34;10.80;;;3.42;;
28629;SDS011;15817;42.130;24.762;2023-02-01T06:00:03;6.95;;;3.30;;
28629;SDS011;15817;42.130;24.762;2023-02-01T06:02:37;6.60;;;2.92;;
28629;SDS011;15817;42.130;24.762;2023-02-01T06:09:14;7.53;;;2.80;;
28629;SDS011;15817;42.130;24.762;2023-02-01T06:11:43;7.22;;;2.80;;
28629;SDS011;15817;42.130;24.762;2023-02-01T06:14:15;4.95;;;2.53;;
28629;SDS011;15817;42.130;24.762;2023-02-01T06:16:56;7.40;;;3.28;;
28629;SDS011;15817;42.130;24.762;2023-02-01T06:19:42;6.82;;;3.60;;
28629;SDS011;15817;42.130;24.762;2023-02-01T06:22:24;7.55;;;3.40;;
28629;SDS011;15817;42.130;24.762;2023-02-01T06:24:53;10.63;;;2.97;;
28629;SDS011;15817;42.130;24.762;2023-02-01T06:27:19;8.30;;;3.33;;
28629;SDS011;15817;42.130;24.762;2023-02-01T06:33:39;8.27;;;3.25;;
28629;SDS011;15817;42.130;24.762;2023-02-01T06:36:26;6.28;;;2.60;;
28629;SDS011;15817;42.130;24.762;2023-02-01T06:42:07;6.25;;;2.75;;
28629;SDS011;15817;42.130;24.762;2023-02-01T06:44:33;5.30;;;2.45;;
28629;SDS011;15817;42.130;24.762;2023-02-01T06:47:38;5.43;;;3.42;;
28629;SDS011;15817;42.130;24.762;2023-02-01T06:50:10;9.63;;;2.70;;
28629;SDS011;15817;42.130;24.762;2023-02-01T06:52:36;9.32;;;3.20;;
28629;SDS011;15817;42.130;24.762;2023-02-01T07:02:26;6.10;;;2.53;;
28629;SDS011;15817;42.130;24.762;2023-02-01T07:04:55;7.13;;;2.58;;
28629;SDS011;15817;42.130;24.762;2023-02-01T07:07:21;16.40;;;2.55;;
28629;SDS011;15817;42.130;24.762;2023-02-01T07:09:50;9.43;;;2.92;;
28629;SDS011;15817;42.130;24.762;2023-02-01T07:12:37;13.65;;;2.80;;
28629;SDS011;15817;42.130;24.762;2023-02-01T07:15:02;14.82;;;2.20;;
28629;SDS011;15817;42.130;24.762;2023-02-01T07:17:29;6.22;;;2.38;;
28629;SDS011;15817;42.130;24.762;2023-02-01T07:19:55;11.20;;;2.45;;
28629;SDS011;15817;42.130;24.762;2023-02-01T07:22:22;9.70;;;2.78;;
28629;SDS011;15817;42.130;24.762;2023-02-01T07:24:50;8.90;;;2.95;;
28629;SDS011;15817;42.130;24.762;2023-02-01T07:27:16;7.15;;;2.60;;
28629;SDS011;15817;42.130;24.762;2023-02-01T07:29:42;8.55;;;2.50;;
28629;SDS011;15817;42.130;24.762;2023-02-01T07:32:07;7.50;;;2.85;;
28629;SDS011;15817;42.130;24.762;2023-02-01T07:34:33;5.93;;;2.47;;
28629;SDS011;15817;42.130;24.762;2023-02-01T07:37:00;7.20;;;2.75;;
28629;SDS011;15817;42.130;24.762;2023-02-01T07:39:28;7.43;;;3.00;;
28629;SDS011;15817;42.130;24.762;2023-02-01T07:41:57;6.75;;;2.78;;
28629;SDS011;15817;42.130;24.762;2023-02-01T07:44:22;10.63;;;2.72;;
28629;SDS011;15817;42.130;24.762;2023-02-01T07:46:49;7.97;;;2.70;;
28629;SDS011;15817;42.130;24.762;2023-02-01T07:49:15;7.97;;;3.28;;
28629;SDS011;15817;42.130;24.762;2023-02-01T07:51:42;6.68;;;2.97;;
28629;SDS011;15817;42.130;24.762;2023-02-01T07:54:11;15.40;;;3.95;;
28629;SDS011;15817;42.130;24.762;2023-02-01T07:56:37;15.60;;;3.03;;
28629;SDS011;15817;42.130;24.762;2023-02-01T07:59:03;10.38;;;3.38;;
28629;SDS011;15817;42.130;24.762;2023-02-01T08:01:32;6.88;;;2.65;;
28629;SDS011;15817;42.130;24.762;2023-02-01T08:03:58;8.95;;;3.15;;
28629;SDS011;15817;42.130;24.762;2023-02-01T08:06:29;13.77;;;3.22;;
28629;SDS011;15817;42.130;24.762;2023-02-01T08:09:00;11.25;;;3.40;;
28629;SDS011;15817;42.130;24.762;2023-02-01T08:11:29;20.25;;;3.58;;
28629;SDS011;15817;42.130;24.762;2023-02-01T08:13:55;8.27;;;2.70;;
28629;SDS011;15817;42.130;24.762;2023-02-01T08:16:22;6.30;;;3.05;;
28629;SDS011;15817;42.130;24.762;2023-02-01T08:18:49;13.27;;;3.28;;
28629;SDS011;15817;42.130;24.762;2023-02-01T08:21:19;8.10;;;2.70;;
28629;SDS011;15817;42.130;24.762;2023-02-01T08:23:47;7.03;;;2.95;;
28629;SDS011;15817;42.130;24.762;2023-02-01T08:26:14;6.40;;;2.92;;
28629;SDS011;15817;42.130;24.762;2023-02-01T08:28:41;6.53;;;2.88;;
28629;SDS011;15817;42.130;24.762;2023-02-01T08:31:16;8.95;;;2.72;;
28629;SDS011;15817;42.130;24.762;2023-02-01T08:33:51;7.07;;;3.25;;
28629;SDS011;15817;42.130;24.762;2023-02-01T08:36:18;8.18;;;2.80;;
28629;SDS011;15817;42.130;24.762;2023-02-01T08:38:51;7.72;;;3.50;;
28629;SDS011;15817;42.130;24.762;2023-02-01T08:41:23;19.52;;;3.92;;
28629;SDS011;15817;42.130;24.762;2023-02-01T08:43:52;5.63;;;2.70;;
28629;SDS011;15817;42.130;24.762;2023-02-01T08:46:27;7.32;;;3.75;;
28629;SDS011;15817;42.130;24.762;2023-02-01T08:48:53;9.00;;;2.90;;
28629;SDS011;15817;42.130;24.762;2023-02-01T08:51:53;7.35;;;2.97;;
28629;SDS011;15817;42.130;24.762;2023-02-01T08:54:12;7.57;;;3.45;;
28629;SDS011;15817;42.130;24.762;2023-02-01T08:56:59;116.20;;;11.57;;
28629;SDS011;15817;42.130;24.762;2023-02-01T08:59:28;22.50;;;4.68;;
28629;SDS011;15817;42.130;24.762;2023-02-01T09:02:29;31.77;;;5.68;;
28629;SDS011;15817;42.130;24.762;2023-02-01T09:05:12;9.63;;;3.00;;
28629;SDS011;15817;42.130;24.762;2023-02-01T09:07:41;15.70;;;4.15;;
28629;SDS011;15817;42.130;24.762;2023-02-01T09:10:11;13.38;;;3.42;;
28629;SDS011;15817;42.130;24.762;2023-02-01T09:12:39;5.13;;;2.75;;
28629;SDS011;15817;42.130;24.762;2023-02-01T09:19:02;10.52;;;3.08;;
28629;SDS011;15817;42.130;24.762;2023-02-01T09:21:40;11.32;;;3.63;;
28629;SDS011;15817;42.130;24.762;2023-02-01T09:24:08;10.00;;;3.25;;
28629;SDS011;15817;42.130;24.762;2023-02-01T09:26:39;7.85;;;2.95;;
28629;SDS011;15817;42.130;24.762;2023-02-01T09:29:05;14.10;;;3.70;;
28629;SDS011;15817;42.130;24.762;2023-02-01T09:35:21;10.23;;;3.38;;
28629;SDS011;15817;42.130;24.762;2023-02-01T09:37:52;8.60;;;3.10;;
28629;SDS011;15817;42.130;24.762;2023-02-01T09:40:21;6.38;;;3.65;;
28629;SDS011;15817;42.130;24.762;2023-02-01T09:48:54;5.97;;;2.70;;
28629;SDS011;15817;42.130;24.762;2023-02-01T09:54:41;8.32;;;2.00;;
28629;SDS011;15817;42.130;24.762;2023-02-01T09:57:15;8.88;;;2.20;;
28629;SDS011;15817;42.130;24.762;2023-02-01T10:02:59;12.38;;;2.50;;
28629;SDS011;15817;42.130;24.762;2023-02-01T10:09:00;10.18;;;2.00;;
28629;SDS011;15817;42.130;24.762;2023-02-01T10:23:43;10.07;;;2.13;;
28629;SDS011;15817;42.130;24.762;2023-02-01T10:32:40;12.07;;;2.97;;
28629;SDS011;15817;42.130;24.762;2023-02-01T10:35:21;21.92;;;3.53;;
28629;SDS011;15817;42.130;24.762;2023-02-01T10:37:52;4.80;;;1.50;;
28629;SDS011;15817;42.130;24.762;2023-02-01T10:40:24;5.13;;;2.10;;
28629;SDS011;15817;42.130;24.762;2023-02-01T10:42:54;6.78;;;1.77;;
28629;SDS011;15817;42.130;24.762;2023-02-01T10:45:25;4.75;;;2.03;;
28629;SDS011;15817;42.130;24.762;2023-02-01T10:47:58;5.72;;;1.73;;
28629;SDS011;15817;42.130;24.762;2023-02-01T11:02:42;12.98;;;1.95;;
28629;SDS011;15817;42.130;24.762;2023-02-01T11:11:58;4.30;;;1.60;;
28629;SDS011;15817;42.130;24.762;2023-02-01T11:14:33;4.95;;;1.38;;
28629;SDS011;15817;42.130;24.762;2023-02-01T11:23:25;6.60;;;1.70;;
28629;SDS011;15817;42.130;24.762;2023-02-01T11:29:24;6.05;;;1.50;;
28629;SDS011;15817;42.130;24.762;2023-02-01T11:31:58;6.55;;;2.00;;
28629;SDS011;15817;42.130;24.762;2023-02-01T11:34:37;4.45;;;1.73;;
28629;SDS011;15817;42.130;24.762;2023-02-01T11:41:13;5.53;;;1.40;;
28629;SDS011;15817;42.130;24.762;2023-02-01T11:46:28;2.35;;;1.25;;
28629;SDS011;15817;42.130;24.762;2023-02-01T11:58:12;5.25;;;1.38;;
28629;SDS011;15817;42.130;24.762;2023-02-01T12:00:59;6.60;;;1.67;;
28629;SDS011;15817;42.130;24.762;2023-02-01T12:06:49;9.23;;;1.90;;
28629;SDS011;15817;42.130;24.762;2023-02-01T12:15:21;2.33;;;1.13;;
28629;SDS011;15817;42.130;24.762;2023-02-01T12:26:35;8.60;;;1.90;;
28629;SDS011;15817;42.130;24.762;2023-02-01T12:32:41;3.35;;;1.60;;
28629;SDS011;15817;42.130;24.762;2023-02-01T12:35:32;1.98;;;1.10;;
28629;SDS011;15817;42.130;24.762;2023-02-01T12:41:39;6.57;;;1.52;;
28629;SDS011;15817;42.130;24.762;2023-02-01T12:44:20;4.13;;;1.60;;
28629;SDS011;15817;42.130;24.762;2023-02-01T12:47:03;3.30;;;0.90;;
28629;SDS011;15817;42.130;24.762;2023-02-01T12:49:49;5.07;;;1.60;;
28629;SDS011;15817;42.130;24.762;2023-02-01T12:52:37;22.52;;;3.10;;
28629;SDS011;15817;42.130;24.762;2023-02-01T12:55:20;4.63;;;1.35;;
28629;SDS011;15817;42.130;24.762;2023-02-01T13:01:03;4.97;;;1.60;;
28629;SDS011;15817;42.130;24.762;2023-02-01T13:07:17;2.35;;;1.38;;
28629;SDS011;15817;42.130;24.762;2023-02-01T13:16:25;2.38;;;1.30;;
28629;SDS011;15817;42.130;24.762;2023-02-01T13:21:59;5.10;;;1.52;;
28629;SDS011;15817;42.130;24.762;2023-02-01T13:24:43;3.08;;;1.35;;
28629;SDS011;15817;42.130;24.762;2023-02-01T13:38:26;6.13;;;1.30;;
28629;SDS011;15817;42.130;24.762;2023-02-01T13:44:26;13.40;;;2.28;;
28629;SDS011;15817;42.130;24.762;2023-02-01T13:53:30;5.85;;;2.13;;
28629;SDS011;15817;42.130;24.762;2023-02-01T13:56:27;5.63;;;2.00;;
28629;SDS011;15817;42.130;24.762;2023-02-01T14:08:14;3.00;;;1.33;;
28629;SDS011;15817;42.130;24.762;2023-02-01T14:11:06;2.78;;;1.45;;
28629;SDS011;15817;42.130;24.762;2023-02-01T14:23:37;13.80;;;2.13;;
28629;SDS011;15817;42.130;24.762;2023-02-01T14:26:07;7.00;;;2.75;;
28629;SDS011;15817;42.130;24.762;2023-02-01T14:28:53;12.32;;;3.65;;
28629;SDS011;15817;42.130;24.762;2023-02-01T14:32:03;3.33;;;1.90;;
28629;SDS011;15817;42.130;24.762;2023-02-01T14:36:14;3.30;;;1.38;;
28629;SDS011;15817;42.130;24.762;2023-02-01T14:38:49;1.95;;;1.20;;
28629;SDS011;15817;42.130;24.762;2023-02-01T14:44:25;4.18;;;1.85;;
28629;SDS011;15817;42.130;24.762;2023-02-01T14:51:01;15.23;;;2.30;;
28629;SDS011;15817;42.130;24.762;2023-02-01T14:53:44;4.68;;;2.10;;
28629;SDS011;15817;42.130;24.762;2023-02-01T14:56:40;4.97;;;2.40;;
28629;SDS011;15817;42.130;24.762;2023-02-01T15:02:29;4.10;;;1.75;;
28629;SDS011;15817;42.130;24.762;2023-02-01T15:09:04;9.60;;;4.20;;
28629;SDS011;15817;42.130;24.762;2023-02-01T15:17:50;13.55;;;2.85;;
28629;SDS011;15817;42.130;24.762;2023-02-01T15:20:31;6.28;;;3.63;;
28629;SDS011;15817;42.130;24.762;2023-02-01T15:26:26;10.20;;;3.45;;
28629;SDS011;15817;42.130;24.762;2023-02-01T15:28:53;15.88;;;4.15;;
28629;SDS011;15817;42.130;24.762;2023-02-01T15:31:31;6.82;;;2.85;;
28629;SDS011;15817;42.130;24.762;2023-02-01T15:34:15;7.75;;;2.80;;
28629;SDS011;15817;42.130;24.762;2023-02-01T15:36:42;8.93;;;2.92;;
28629;SDS011;15817;42.130;24.762;2023-02-01T15:42:08;7.18;;;2.47;;
28629;SDS011;15817;42.130;24.762;2023-02-01T15:44:45;5.22;;;2.65;;
28629;SDS011;15817;42.130;24.762;2023-02-01T15:47:16;4.45;;;2.58;;
28629;SDS011;15817;42.130;24.762;2023-02-01T15:49:45;6.55;;;2.67;;
28629;SDS011;15817;42.130;24.762;2023-02-01T15:55:08;8.35;;;3.80;;
28629;SDS011;15817;42.130;24.762;2023-02-01T15:57:44;8.45;;;3.28;;
28629;SDS011;15817;42.130;24.762;2023-02-01T16:06:08;9.73;;;4.38;;
28629;SDS011;15817;42.130;24.762;2023-02-01T16:08:48;8.02;;;3.47;;
28629;SDS011;15817;42.130;24.762;2023-02-01T16:19:09;9.93;;;3.25;;
28629;SDS011;15817;42.130;24.762;2023-02-01T16:21:35;9.60;;;4.32;;
28629;SDS011;15817;42.130;24.762;2023-02-01T16:24:04;10.48;;;4.60;;
28629;SDS011;15817;42.130;24.762;2023-02-01T16:26:39;8.52;;;4.28;;
28629;SDS011;15817;42.130;24.762;2023-02-01T16:36:35;6.88;;;3.47;;
28629;SDS011;15817;42.130;24.762;2023-02-01T16:39:07;7.28;;;3.60;;
28629;SDS011;15817;42.130;24.762;2023-02-01T16:42:43;11.25;;;4.50;;
28629;SDS011;15817;42.130;24.762;2023-02-01T16:45:24;13.05;;;3.53;;
28629;SDS011;15817;42.130;24.762;2023-02-01T16:48:04;5.47;;;3.22;;
28629;SDS011;15817;42.130;24.762;2023-02-01T16:50:45;5.32;;;2.83;;
28629;SDS011;15817;42.130;24.762;2023-02-01T16:53:46;5.80;;;2.47;;
28629;SDS011;15817;42.130;24.762;2023-02-01T16:56:51;13.23;;;3.95;;
28629;SDS011;15817;42.130;24.762;2023-02-01T17:00:18;5.50;;;3.22;;
28629;SDS011;15817;42.130;24.762;2023-02-01T17:03:12;6.60;;;3.20;;
28629;SDS011;15817;42.130;24.762;2023-02-01T17:06:22;12.18;;;4.30;;
28629;SDS011;15817;42.130;24.762;2023-02-01T17:09:11;11.45;;;4.03;;
28629;SDS011;15817;42.130;24.762;2023-02-01T17:15:12;4.40;;;3.08;;
28629;SDS011;15817;42.130;24.762;2023-02-01T17:17:38;8.50;;;3.40;;
28629;SDS011;15817;42.130;24.762;2023-02-01T17:20:17;8.60;;;3.65;;
28629;SDS011;15817;42.130;24.762;2023-02-01T17:22:46;7.60;;;3.95;;
28629;SDS011;15817;42.130;24.762;2023-02-01T17:25:16;11.27;;;3.50;;
28629;SDS011;15817;42.130;24.762;2023-02-01T17:27:47;14.55;;;5.38;;
28629;SDS011;15817;42.130;24.762;2023-02-01T17:30:15;7.93;;;3.85;;
28629;SDS011;15817;42.130;24.762;2023-02-01T17:32:42;9.38;;;5.00;;
28629;SDS011;15817;42.130;24.762;2023-02-01T17:35:15;8.95;;;5.18;;
28629;SDS011;15817;42.130;24.762;2023-02-01T17:37:44;12.00;;;5.65;;
28629;SDS011;15817;42.130;24.762;2023-02-01T17:40:33;14.52;;;6.47;;
28629;SDS011;15817;42.130;24.762;2023-02-01T17:43:02;17.80;;;5.95;;
28629;SDS011;15817;42.130;24.762;2023-02-01T17:48:07;10.30;;;5.38;;
28629;SDS011;15817;42.130;24.762;2023-02-01T17:50:36;10.73;;;5.60;;
28629;SDS011;15817;42.130;24.762;2023-02-01T17:53:03;16.95;;;6.30;;
28629;SDS011;15817;42.130;24.762;2023-02-01T17:55:33;12.00;;;5.18;;
28629;SDS011;15817;42.130;24.762;2023-02-01T17:58:00;16.17;;;6.40;;
28629;SDS011;15817;42.130;24.762;2023-02-01T18:00:26;19.92;;;7.38;;
28629;SDS011;15817;42.130;24.762;2023-02-01T18:02:52;10.63;;;5.03;;
28629;SDS011;15817;42.130;24.762;2023-02-01T18:08:21;11.60;;;5.03;;
28629;SDS011;15817;42.130;24.762;2023-02-01T18:10:49;11.13;;;5.78;;
28629;SDS011;15817;42.130;24.762;2023-02-01T18:13:16;11.07;;;4.70;;
28629;SDS011;15817;42.130;24.762;2023-02-01T18:15:42;6.18;;;3.47;;
28629;SDS011;15817;42.130;24.762;2023-02-01T18:18:08;10.50;;;4.38;;
28629;SDS011;15817;42.130;24.762;2023-02-01T18:20:34;11.50;;;3.85;;
28629;SDS011;15817;42.130;24.762;2023-02-01T18:23:01;7.00;;;3.30;;
28629;SDS011;15817;42.130;24.762;2023-02-01T18:25:30;6.25;;;3.13;;
28629;SDS011;15817;42.130;24.762;2023-02-01T18:28:01;7.32;;;3.25;;
28629;SDS011;15817;42.130;24.762;2023-02-01T18:30:30;5.43;;;2.88;;
28629;SDS011;15817;42.130;24.762;2023-02-01T18:32:58;8.93;;;3.03;;
28629;SDS011;15817;42.130;24.762;2023-02-01T18:35:36;6.32;;;3.13;;
28629;SDS011;15817;42.130;24.762;2023-02-01T18:38:05;4.80;;;2.97;;
28629;SDS011;15817;42.130;24.762;2023-02-01T18:40:34;10.20;;;2.85;;
28629;SDS011;15817;42.130;24.762;2023-02-01T18:43:04;8.80;;;2.83;;
28629;SDS011;15817;42.130;24.762;2023-02-01T18:45:32;6.28;;;3.00;;
28629;SDS011;15817;42.130;24.762;2023-02-01T18:48:01;4.00;;;2.40;;
28629;SDS011;15817;42.130;24.762;2023-02-01T18:54:17;6.68;;;2.50;;
28629;SDS011;15817;42.130;24.762;2023-02-01T18:56:48;4.93;;;2.50;;
28629;SDS011;15817;42.130;24.762;2023-02-01T18:59:14;4.60;;;2.45;;
28629;SDS011;15817;42.130;24.762;2023-02-01T19:02:27;6.05;;;2.90;;
28629;SDS011;15817;42.130;24.762;2023-02-01T19:05:16;6.03;;;2.58;;
28629;SDS011;15817;42.130;24.762;2023-02-01T19:07:43;5.93;;;2.88;;
28629;SDS011;15817;42.130;24.762;2023-02-01T19:10:13;5.13;;;2.53;;
28629;SDS011;15817;42.130;24.762;2023-02-01T19:12:41;5.38;;;2.90;;
28629;SDS011;15817;42.130;24.762;2023-02-01T19:18:37;5.75;;;3.10;;
28629;SDS011;15817;42.130;24.762;2023-02-01T19:21:03;8.95;;;3.40;;
28629;SDS011;15817;42.130;24.762;2023-02-01T19:23:31;5.70;;;2.80;;
28629;SDS011;15817;42.130;24.762;2023-02-01T19:25:57;8.07;;;2.97;;
28629;SDS011;15817;42.130;24.762;2023-02-01T19:28:23;3.72;;;2.30;;
28629;SDS011;15817;42.130;24.762;2023-02-01T19:31:02;6.90;;;2.88;;
28629;SDS011;15817;42.130;24.762;2023-02-01T19:33:29;6.03;;;2.90;;
28629;SDS011;15817;42.130;24.762;2023-02-01T19:39:03;5.80;;;3.20;;
28629;SDS011;15817;42.130;24.762;2023-02-01T19:41:39;6.88;;;3.42;;
28629;SDS011;15817;42.130;24.762;2023-02-01T19:44:05;8.73;;;3.10;;
28629;SDS011;15817;42.130;24.762;2023-02-01T19:46:33;8.65;;;3.00;;
28629;SDS011;15817;42.130;24.762;2023-02-01T19:49:02;10.50;;;3.78;;
28629;SDS011;15817;42.130;24.762;2023-02-01T19:51:31;13.25;;;3.70;;
28629;SDS011;15817;42.130;24.762;2023-02-01T19:53:57;7.68;;;3.72;;
28629;SDS011;15817;42.130;24.762;2023-02-01T19:56:23;8.30;;;3.90;;
28629;SDS011;15817;42.130;24.762;2023-02-01T19:58:58;10.90;;;3.45;;
28629;SDS011;15817;42.130;24.762;2023-02-01T20:04:06;14.07;;;3.88;;
28629;SDS011;15817;42.130;24.762;2023-02-01T20:06:38;7.93;;;4.95;;
28629;SDS011;15817;42.130;24.762;2023-02-01T20:09:22;9.10;;;4.40;;
28629;SDS011;15817;42.130;24.762;2023-02-01T20:12:17;7.53;;;4.68;;
28629;SDS011;15817;42.130;24.762;2023-02-01T20:14:44;11.55;;;4.00;;
28629;SDS011;15817;42.130;24.762;2023-02-01T20:17:15;12.25;;;4.50;;
28629;SDS011;15817;42.130;24.762;2023-02-01T20:19:45;7.80;;;4.00;;
28629;SDS011;15817;42.130;24.762;2023-02-01T20:22:11;14.07;;;4.60;;
28629;SDS011;15817;42.130;24.762;2023-02-01T20:24:37;6.95;;;4.22;;
28629;SDS011;15817;42.130;24.762;2023-02-01T20:27:04;11.23;;;4.57;;
28629;SDS011;15817;42.130;24.762;2023-02-01T20:29:33;8.48;;;4.32;;